Time;durP1;ratioP1;P1;durP2;ratioP2;P2;SDS_P1;SDS_P2;PMS_P1;PMS_P2;Temp;Humidity;BMP_temperature;BMP_pressure;BME280_temperature;BME280_humidity;BME280_pressure;Samples;Min_cycle;Max_cycle;Signal;HPM_P1;HPM_P2
2022/06/12 00:00:00;;;;;;;0.4;0.4;;;;;;;17.8;100.0;102020;;;;
2022/06/12 00:01:00;;;;;;;0.4;0.4;;;;;;;17.8;100.0;102020;;;;
2022/06/12 00:02:00;;;;;;;0.3;0.3;;;;;;;17.8;100.0;102020;;;;
2022/06/12 00:03:01;;;;;;;0.3;0.3;;;;;;;17.8;100.0;102020;;;;
2022/06/12 00:04:00;;;;;;;0.3;0.3;;;;;;;17.8;100.0;102020;;;;
2022/06/12 00:05:00;;;;;;;0.3;0.3;;;;;;;17.8;100.0;102020;;;;
2022/06/12 00:06:01;;;;;;;0.3;0.3;;;;;;;17.8;100.0;102020;;;;
2022/06/12 00:07:00;;;;;;;0.3;0.3;;;;;;;17.6;100.0;102010;;;;
2022/06/12 00:08:00;;;;;;;0.3;0.3;;;;;;;17.6;100.0;102010;;;;
2022/06/12 00:09:00;;;;;;;0.3;0.3;;;;;;;17.6;100.0;102010;;;;
2022/06/12 00:10:00;;;;;;;0.3;0.3;;;;;;;17.6;100.0;102010;;;;
2022/06/12 00:11:01;;;;;;;0.3;0.3;;;;;;;17.6;100.0;102010;;;;
2022/06/12 00:12:00;;;;;;;0.3;0.3;;;;;;;17.6;100.0;102010;;;;
2022/06/12 00:13:00;;;;;;;0.3;0.3;;;;;;;17.4;100.0;102010;;;;
2022/06/12 00:14:01;;;;;;;0.3;0.3;;;;;;;17.4;100.0;102010;;;;
2022/06/12 00:15:00;;;;;;;0.3;0.3;;;;;;;17.5;100.0;102010;;;;
2022/06/12 00:16:00;;;;;;;0.3;0.3;;;;;;;17.5;100.0;102010;;;;
2022/06/12 00:17:00;;;;;;;0.3;0.3;;;;;;;17.5;100.0;102010;;;;
2022/06/12 00:18:00;;;;;;;0.3;0.3;;;;;;;17.5;100.0;102010;;;;
2022/06/12 00:19:01;;;;;;;0.3;0.3;;;;;;;17.5;100.0;102010;;;;
2022/06/12 00:20:00;;;;;;;0.3;0.3;;;;;;;17.5;100.0;102010;;;;
2022/06/12 00:22:00;;;;;;;0.3;0.3;;;;;;;17.3;100.0;102010;;;;
2022/06/12 00:23:04;;;;;;;0.3;0.3;;;;;;;17.4;100.0;102010;;;;
2022/06/12 00:24:01;;;;;;;0.3;0.3;;;;;;;17.4;100.0;102010;;;;
2022/06/12 00:25:00;;;;;;;0.3;0.3;;;;;;;17.3;100.0;102010;;;;
2022/06/12 00:26:00;;;;;;;0.3;0.3;;;;;;;17.3;100.0;102010;;;;
2022/06/12 00:27:00;;;;;;;0.3;0.3;;;;;;;17.3;100.0;102010;;;;
2022/06/12 00:28:00;;;;;;;0.3;0.3;;;;;;;17.3;100.0;102010;;;;
2022/06/12 00:29:02;;;;;;;0.3;0.3;;;;;;;17.3;100.0;102010;;;;
2022/06/12 00:30:00;;;;;;;0.3;0.3;;;;;;;17.3;100.0;102010;;;;
2022/06/12 00:31:00;;;;;;;0.3;0.3;;;;;;;17.3;100.0;102010;;;;
2022/06/12 00:32:01;;;;;;;0.3;0.3;;;;;;;17.3;100.0;102010;;;;
2022/06/12 00:33:00;;;;;;;0.3;0.3;;;;;;;17.2;100.0;102010;;;;
2022/06/12 00:34:01;;;;;;;0.3;0.3;;;;;;;17.2;100.0;102010;;;;
2022/06/12 00:35:00;;;;;;;0.3;0.3;;;;;;;17.2;100.0;102010;;;;
2022/06/12 00:36:00;;;;;;;0.3;0.3;;;;;;;17.2;100.0;102010;;;;
2022/06/12 00:37:00;;;;;;;0.3;0.3;;;;;;;17.2;100.0;102010;;;;
2022/06/12 00:38:00;;;;;;;0.3;0.3;;;;;;;17.2;100.0;102010;;;;
2022/06/12 00:39:00;;;;;;;0.3;0.3;;;;;;;17.1;100.0;102010;;;;
2022/06/12 00:40:00;;;;;;;0.3;0.3;;;;;;;17.1;100.0;102010;;;;
2022/06/12 00:41:00;;;;;;;0.3;0.3;;;;;;;17.1;100.0;102010;;;;
2022/06/12 00:42:00;;;;;;;0.3;0.3;;;;;;;17.1;100.0;102010;;;;
2022/06/12 00:43:01;;;;;;;0.3;0.3;;;;;;;17.1;100.0;102010;;;;
2022/06/12 00:44:00;;;;;;;0.3;0.3;;;;;;;17.1;100.0;102010;;;;
2022/06/12 00:45:01;;;;;;;0.3;0.3;;;;;;;17.1;100.0;102010;;;;
2022/06/12 00:46:01;;;;;;;0.3;0.3;;;;;;;17.1;100.0;102010;;;;
2022/06/12 00:47:03;;;;;;;0.3;0.3;;;;;;;17.1;100.0;102010;;;;
2022/06/12 00:48:01;;;;;;;0.3;0.3;;;;;;;17.1;100.0;102010;;;;
2022/06/12 00:49:00;;;;;;;0.3;0.3;;;;;;;17.0;100.0;102010;;;;
2022/06/12 00:50:02;;;;;;;0.3;0.3;;;;;;;17.0;100.0;102010;;;;
2022/06/12 00:51:10;;;;;;;0.3;0.3;;;;;;;16.9;100.0;102010;;;;
2022/06/12 00:52:06;;;;;;;0.3;0.3;;;;;;;16.9;100.0;102010;;;;
2022/06/12 00:53:00;;;;;;;0.3;0.3;;;;;;;16.9;100.0;102010;;;;
2022/06/12 00:54:00;;;;;;;0.3;0.3;;;;;;;16.9;100.0;102010;;;;
2022/06/12 00:55:05;;;;;;;0.3;0.3;;;;;;;16.9;100.0;102010;;;;
2022/06/12 00:56:00;;;;;;;0.3;0.3;;;;;;;16.9;100.0;102010;;;;
2022/06/12 00:57:03;;;;;;;0.3;0.3;;;;;;;16.9;100.0;102010;;;;
2022/06/12 00:58:03;;;;;;;0.3;0.3;;;;;;;16.9;100.0;102010;;;;
2022/06/12 00:59:03;;;;;;;0.3;0.3;;;;;;;16.8;100.0;102010;;;;
2022/06/12 01:00:08;;;;;;;0.3;0.3;;;;;;;16.8;100.0;102010;;;;
2022/06/12 01:01:01;;;;;;;0.3;0.3;;;;;;;16.7;100.0;102010;;;;
2022/06/12 01:02:00;;;;;;;0.3;0.3;;;;;;;16.7;100.0;102010;;;;
2022/06/12 01:03:00;;;;;;;0.3;0.3;;;;;;;16.8;100.0;102010;;;;
2022/06/12 01:07:02;;;;;;;0.3;0.3;;;;;;;16.7;100.0;102010;;;;
2022/06/12 01:08:02;;;;;;;0.3;0.3;;;;;;;16.7;100.0;102010;;;;
2022/06/12 01:09:05;;;;;;;0.3;0.3;;;;;;;16.4;100.0;102010;;;;
2022/06/12 01:10:01;;;;;;;0.3;0.3;;;;;;;16.4;100.0;102010;;;;
2022/06/12 01:11:01;;;;;;;0.3;0.3;;;;;;;16.6;100.0;102010;;;;
2022/06/12 01:12:02;;;;;;;0.3;0.3;;;;;;;16.6;100.0;102010;;;;
2022/06/12 01:13:04;;;;;;;0.3;0.3;;;;;;;16.6;100.0;102010;;;;
2022/06/12 01:14:00;;;;;;;0.3;0.3;;;;;;;16.6;100.0;102010;;;;
2022/06/12 01:15:02;;;;;;;0.3;0.3;;;;;;;16.6;100.0;102010;;;;
2022/06/12 01:16:03;;;;;;;0.3;0.3;;;;;;;16.6;100.0;102010;;;;
2022/06/12 01:17:01;;;;;;;0.3;0.3;;;;;;;16.5;100.0;102010;;;;
2022/06/12 01:18:00;;;;;;;0.3;0.3;;;;;;;16.5;100.0;102010;;;;
2022/06/12 01:19:00;;;;;;;0.3;0.3;;;;;;;16.5;100.0;102000;;;;
2022/06/12 01:20:02;;;;;;;0.3;0.3;;;;;;;16.5;100.0;102000;;;;
2022/06/12 01:21:10;;;;;;;0.3;0.3;;;;;;;16.5;100.0;102000;;;;
2022/06/12 01:22:01;;;;;;;0.5;0.5;;;;;;;16.5;100.0;102000;;;;
2022/06/12 01:23:11;;;;;;;0.5;0.5;;;;;;;16.5;100.0;102000;;;;
2022/06/12 01:24:09;;;;;;;0.5;0.5;;;;;;;16.5;100.0;102000;;;;
2022/06/12 01:25:10;;;;;;;0.5;0.5;;;;;;;16.5;100.0;102010;;;;
2022/06/12 01:26:10;;;;;;;0.5;0.5;;;;;;;16.5;100.0;102010;;;;
2022/06/12 01:27:00;;;;;;;0.5;0.5;;;;;;;16.4;100.0;102010;;;;
2022/06/12 01:28:11;;;;;;;0.5;0.5;;;;;;;16.4;100.0;102010;;;;
2022/06/12 01:29:03;;;;;;;0.5;0.5;;;;;;;16.4;100.0;102010;;;;
2022/06/12 01:30:10;;;;;;;0.5;0.5;;;;;;;16.4;100.0;102010;;;;
2022/06/12 01:31:01;;;;;;;0.5;0.5;;;;;;;16.3;100.0;102010;;;;
2022/06/12 01:32:07;;;;;;;0.5;0.5;;;;;;;16.3;100.0;102010;;;;
2022/06/12 01:33:08;;;;;;;0.5;0.5;;;;;;;16.3;100.0;102010;;;;
2022/06/12 01:34:09;;;;;;;0.5;0.5;;;;;;;16.3;100.0;102010;;;;
2022/06/12 01:35:05;;;;;;;0.5;0.5;;;;;;;16.3;100.0;102010;;;;
2022/06/12 01:36:01;;;;;;;0.5;0.5;;;;;;;16.3;100.0;102010;;;;
2022/06/12 01:37:10;;;;;;;0.5;0.5;;;;;;;16.3;100.0;102010;;;;
2022/06/12 01:38:10;;;;;;;0.5;0.5;;;;;;;16.3;100.0;102010;;;;
2022/06/12 01:39:01;;;;;;;0.5;0.5;;;;;;;16.3;100.0;102010;;;;
2022/06/12 01:40:12;;;;;;;0.5;0.5;;;;;;;16.3;100.0;102010;;;;
2022/06/12 01:41:08;;;;;;;0.5;0.5;;;;;;;16.2;100.0;102010;;;;
2022/06/12 01:42:00;;;;;;;0.5;0.5;;;;;;;16.2;100.0;102010;;;;
2022/06/12 01:43:00;;;;;;;0.5;0.5;;;;;;;16.2;100.0;102000;;;;
2022/06/12 01:44:07;;;;;;;0.5;0.5;;;;;;;16.2;100.0;102000;;;;
2022/06/12 01:45:05;;;;;;;0.5;0.5;;;;;;;16.2;100.0;102000;;;;
2022/06/12 01:46:10;;;;;;;0.5;0.5;;;;;;;16.2;100.0;102000;;;;
2022/06/12 01:47:08;;;;;;;0.5;0.5;;;;;;;16.2;100.0;102000;;;;
2022/06/12 01:48:05;;;;;;;0.5;0.5;;;;;;;16.2;100.0;102000;;;;
2022/06/12 01:49:00;;;;;;;0.5;0.5;;;;;;;16.1;100.0;102000;;;;
2022/06/12 01:50:07;;;;;;;0.5;0.5;;;;;;;16.1;100.0;102000;;;;
2022/06/12 01:51:00;;;;;;;0.5;0.5;;;;;;;16.1;100.0;102000;;;;
2022/06/12 01:52:03;;;;;;;0.5;0.5;;;;;;;16.1;100.0;102000;;;;
2022/06/12 01:53:00;;;;;;;0.5;0.5;;;;;;;16.1;100.0;102000;;;;
2022/06/12 01:54:06;;;;;;;0.5;0.5;;;;;;;16.1;100.0;102000;;;;
2022/06/12 01:55:05;;;;;;;0.5;0.5;;;;;;;15.9;100.0;101990;;;;
2022/06/12 01:56:06;;;;;;;0.5;0.5;;;;;;;15.9;100.0;101990;;;;
2022/06/12 01:57:00;;;;;;;0.5;0.5;;;;;;;15.9;100.0;101990;;;;
2022/06/12 01:58:00;;;;;;;0.5;0.5;;;;;;;15.9;100.0;101990;;;;
2022/06/12 01:59:09;;;;;;;0.5;0.5;;;;;;;15.9;100.0;101990;;;;
2022/06/12 02:00:02;;;;;;;0.5;0.5;;;;;;;15.9;100.0;101990;;;;
2022/06/12 02:01:02;;;;;;;0.5;0.5;;;;;;;15.9;100.0;101990;;;;
2022/06/12 02:02:04;;;;;;;0.4;0.4;;;;;;;15.9;100.0;101990;;;;
2022/06/12 02:03:10;;;;;;;0.4;0.4;;;;;;;15.9;100.0;101990;;;;
2022/06/12 02:04:06;;;;;;;0.4;0.4;;;;;;;15.9;100.0;101990;;;;
2022/06/12 02:05:00;;;;;;;0.4;0.4;;;;;;;15.8;100.0;101990;;;;
2022/06/12 02:06:05;;;;;;;0.4;0.4;;;;;;;15.8;100.0;101990;;;;
2022/06/12 02:07:07;;;;;;;0.4;0.4;;;;;;;15.8;100.0;101990;;;;
2022/06/12 02:08:10;;;;;;;0.4;0.4;;;;;;;15.8;100.0;101990;;;;
2022/06/12 02:09:04;;;;;;;0.4;0.4;;;;;;;15.7;100.0;101990;;;;
2022/06/12 02:10:10;;;;;;;0.4;0.4;;;;;;;15.7;100.0;101990;;;;
2022/06/12 02:13:11;;;;;;;0.4;0.4;;;;;;;15.7;100.0;101990;;;;
2022/06/12 02:14:01;;;;;;;0.4;0.4;;;;;;;15.7;100.0;101990;;;;
2022/06/12 02:15:04;;;;;;;0.4;0.4;;;;;;;15.7;100.0;102000;;;;
2022/06/12 02:16:04;;;;;;;0.4;0.4;;;;;;;15.7;100.0;102000;;;;
2022/06/12 02:17:02;;;;;;;0.4;0.4;;;;;;;15.7;100.0;101990;;;;
2022/06/12 02:18:06;;;;;;;0.4;0.4;;;;;;;15.7;100.0;101990;;;;
2022/06/12 02:19:10;;;;;;;0.4;0.4;;;;;;;15.7;100.0;102000;;;;
2022/06/12 02:20:01;;;;;;;0.4;0.4;;;;;;;15.7;100.0;102000;;;;
2022/06/12 02:21:03;;;;;;;0.4;0.4;;;;;;;15.3;100.0;101990;;;;
2022/06/12 02:22:04;;;;;;;0.4;0.4;;;;;;;15.3;100.0;101990;;;;
2022/06/12 02:23:02;;;;;;;0.4;0.4;;;;;;;15.5;100.0;102000;;;;
2022/06/12 02:24:10;;;;;;;0.4;0.4;;;;;;;15.5;100.0;102000;;;;
2022/06/12 02:25:10;;;;;;;0.4;0.4;;;;;;;15.6;100.0;102000;;;;
2022/06/12 02:26:01;;;;;;;0.4;0.4;;;;;;;15.6;100.0;102000;;;;
2022/06/12 02:27:04;;;;;;;0.4;0.4;;;;;;;15.5;100.0;102000;;;;
2022/06/12 02:28:04;;;;;;;0.4;0.4;;;;;;;15.5;100.0;102000;;;;
2022/06/12 02:29:03;;;;;;;0.4;0.4;;;;;;;15.5;100.0;102000;;;;
2022/06/12 02:30:02;;;;;;;0.4;0.4;;;;;;;15.5;100.0;102000;;;;
2022/06/12 02:31:04;;;;;;;0.4;0.4;;;;;;;15.3;100.0;102000;;;;
2022/06/12 02:32:03;;;;;;;0.4;0.4;;;;;;;15.3;100.0;102000;;;;
2022/06/12 02:33:02;;;;;;;0.4;0.4;;;;;;;15.4;100.0;102000;;;;
2022/06/12 02:34:04;;;;;;;0.4;0.4;;;;;;;15.4;100.0;102000;;;;
2022/06/12 02:35:04;;;;;;;0.4;0.4;;;;;;;15.4;100.0;101990;;;;
2022/06/12 02:36:02;;;;;;;0.4;0.4;;;;;;;15.4;100.0;101990;;;;
2022/06/12 02:37:04;;;;;;;0.4;0.4;;;;;;;15.3;100.0;101990;;;;
2022/06/12 02:38:04;;;;;;;0.4;0.4;;;;;;;15.3;100.0;101990;;;;
2022/06/12 02:39:03;;;;;;;0.4;0.4;;;;;;;15.3;100.0;101990;;;;
2022/06/12 02:40:02;;;;;;;0.4;0.4;;;;;;;15.3;100.0;101990;;;;
2022/06/12 02:41:03;;;;;;;0.4;0.4;;;;;;;15.2;100.0;101990;;;;
2022/06/12 02:42:03;;;;;;;0.3;0.3;;;;;;;15.2;100.0;101990;;;;
2022/06/12 02:43:03;;;;;;;0.3;0.3;;;;;;;15.2;100.0;101990;;;;
2022/06/12 02:44:04;;;;;;;0.3;0.3;;;;;;;15.2;100.0;101990;;;;
2022/06/12 02:45:04;;;;;;;0.3;0.3;;;;;;;15.2;100.0;101990;;;;
2022/06/12 02:46:04;;;;;;;0.3;0.3;;;;;;;15.2;100.0;101990;;;;
2022/06/12 02:47:05;;;;;;;0.3;0.3;;;;;;;15.1;100.0;101980;;;;
2022/06/12 02:48:00;;;;;;;0.3;0.3;;;;;;;15.1;100.0;101980;;;;
2022/06/12 02:49:00;;;;;;;0.3;0.3;;;;;;;15.1;100.0;101990;;;;
2022/06/12 02:50:01;;;;;;;0.3;0.3;;;;;;;15.1;100.0;101990;;;;
2022/06/12 02:51:10;;;;;;;0.3;0.3;;;;;;;15.2;100.0;101980;;;;
2022/06/12 02:52:04;;;;;;;0.3;0.3;;;;;;;15.2;100.0;101980;;;;
2022/06/12 02:53:01;;;;;;;0.3;0.3;;;;;;;15.1;100.0;101980;;;;
2022/06/12 02:54:00;;;;;;;0.3;0.3;;;;;;;15.1;100.0;101980;;;;
2022/06/12 02:55:03;;;;;;;0.3;0.3;;;;;;;15.1;100.0;101980;;;;
2022/06/12 02:56:05;;;;;;;0.3;0.3;;;;;;;15.1;100.0;101980;;;;
2022/06/12 02:57:03;;;;;;;0.3;0.3;;;;;;;15.2;100.0;101980;;;;
2022/06/12 02:58:10;;;;;;;0.3;0.3;;;;;;;15.2;100.0;101980;;;;
2022/06/12 02:59:07;;;;;;;0.3;0.3;;;;;;;15.1;100.0;101970;;;;
2022/06/12 03:00:04;;;;;;;0.3;0.3;;;;;;;15.1;100.0;101970;;;;
2022/06/12 03:01:05;;;;;;;0.3;0.3;;;;;;;15.0;100.0;101970;;;;
2022/06/12 03:02:03;;;;;;;0.5;0.5;;;;;;;15.0;100.0;101970;;;;
2022/06/12 03:03:03;;;;;;;0.5;0.5;;;;;;;15.0;100.0;101970;;;;
2022/06/12 03:04:10;;;;;;;0.5;0.5;;;;;;;15.0;100.0;101970;;;;
2022/06/12 03:05:10;;;;;;;0.5;0.5;;;;;;;15.0;100.0;101970;;;;
2022/06/12 03:06:00;;;;;;;0.5;0.5;;;;;;;15.0;100.0;101970;;;;
2022/06/12 03:07:00;;;;;;;0.5;0.5;;;;;;;15.0;100.0;101970;;;;
2022/06/12 03:08:02;;;;;;;0.5;0.5;;;;;;;15.0;100.0;101970;;;;
2022/06/12 03:09:02;;;;;;;0.5;0.5;;;;;;;15.0;100.0;101970;;;;
2022/06/12 03:10:03;;;;;;;0.5;0.5;;;;;;;15.0;100.0;101970;;;;
2022/06/12 03:11:03;;;;;;;0.5;0.5;;;;;;;15.0;100.0;101970;;;;
2022/06/12 03:12:00;;;;;;;0.5;0.5;;;;;;;15.0;100.0;101970;;;;
2022/06/12 03:13:00;;;;;;;0.5;0.5;;;;;;;15.0;100.0;101980;;;;
2022/06/12 03:14:00;;;;;;;0.5;0.5;;;;;;;15.0;100.0;101980;;;;
2022/06/12 03:15:01;;;;;;;0.5;0.5;;;;;;;14.9;100.0;101970;;;;
2022/06/12 03:16:09;;;;;;;0.5;0.5;;;;;;;14.9;100.0;101970;;;;
2022/06/12 03:17:00;;;;;;;0.5;0.5;;;;;;;14.9;100.0;101980;;;;
2022/06/12 03:18:01;;;;;;;0.5;0.5;;;;;;;14.9;100.0;101980;;;;
2022/06/12 03:19:03;;;;;;;0.5;0.5;;;;;;;15.0;100.0;101980;;;;
2022/06/12 03:20:00;;;;;;;0.5;0.5;;;;;;;15.0;100.0;101980;;;;
2022/06/12 03:21:01;;;;;;;0.5;0.5;;;;;;;14.8;100.0;101980;;;;
2022/06/12 03:22:10;;;;;;;0.6;0.6;;;;;;;14.8;100.0;101980;;;;
2022/06/12 03:23:07;;;;;;;0.6;0.6;;;;;;;14.9;100.0;101980;;;;
2022/06/12 03:24:10;;;;;;;0.6;0.6;;;;;;;14.9;100.0;101980;;;;
2022/06/12 03:25:09;;;;;;;0.6;0.6;;;;;;;14.8;100.0;101980;;;;
2022/06/12 03:26:03;;;;;;;0.6;0.6;;;;;;;14.8;100.0;101980;;;;
2022/06/12 03:27:08;;;;;;;0.6;0.6;;;;;;;14.9;100.0;101990;;;;
2022/06/12 03:28:00;;;;;;;0.6;0.6;;;;;;;14.9;100.0;101990;;;;
2022/06/12 03:29:04;;;;;;;0.6;0.6;;;;;;;14.8;100.0;101990;;;;
2022/06/12 03:30:06;;;;;;;0.6;0.6;;;;;;;14.8;100.0;101990;;;;
2022/06/12 03:31:01;;;;;;;0.6;0.6;;;;;;;14.7;100.0;101990;;;;
2022/06/12 03:32:07;;;;;;;0.6;0.6;;;;;;;14.7;100.0;101990;;;;
2022/06/12 03:33:10;;;;;;;0.6;0.6;;;;;;;14.8;100.0;101990;;;;
2022/06/12 03:34:04;;;;;;;0.6;0.6;;;;;;;14.8;100.0;101990;;;;
2022/06/12 03:35:10;;;;;;;0.6;0.6;;;;;;;14.8;100.0;101990;;;;
2022/06/12 03:36:07;;;;;;;0.6;0.6;;;;;;;14.8;100.0;101990;;;;
2022/06/12 03:37:10;;;;;;;0.6;0.6;;;;;;;14.9;100.0;101990;;;;
2022/06/12 03:38:03;;;;;;;0.6;0.6;;;;;;;14.9;100.0;101990;;;;
2022/06/12 03:39:06;;;;;;;0.6;0.6;;;;;;;14.9;100.0;101990;;;;
2022/06/12 03:40:07;;;;;;;0.6;0.6;;;;;;;14.9;100.0;101990;;;;
2022/06/12 03:41:07;;;;;;;0.3;0.3;;;;;;;14.9;100.0;101990;;;;
2022/06/12 03:42:05;;;;;;;0.3;0.3;;;;;;;14.9;100.0;101990;;;;
2022/06/12 03:43:10;;;;;;;0.3;0.3;;;;;;;15.0;100.0;101990;;;;
2022/06/12 03:44:00;;;;;;;0.3;0.3;;;;;;;15.0;100.0;101990;;;;
2022/06/12 03:45:04;;;;;;;0.3;0.3;;;;;;;15.0;100.0;101990;;;;
2022/06/12 03:46:10;;;;;;;0.3;0.3;;;;;;;15.0;100.0;101990;;;;
2022/06/12 03:47:10;;;;;;;0.3;0.3;;;;;;;14.9;100.0;101990;;;;
2022/06/12 03:48:06;;;;;;;0.3;0.3;;;;;;;14.9;100.0;101990;;;;
2022/06/12 03:49:01;;;;;;;0.3;0.3;;;;;;;14.9;100.0;101990;;;;
2022/06/12 03:50:10;;;;;;;0.3;0.3;;;;;;;14.9;100.0;101990;;;;
2022/06/12 03:51:05;;;;;;;0.3;0.3;;;;;;;14.8;100.0;101990;;;;
2022/06/12 03:52:12;;;;;;;0.3;0.3;;;;;;;14.8;100.0;101990;;;;
2022/06/12 03:53:01;;;;;;;0.3;0.3;;;;;;;14.9;100.0;101990;;;;
2022/06/12 03:54:03;;;;;;;0.3;0.3;;;;;;;14.9;100.0;101990;;;;
2022/06/12 03:55:10;;;;;;;0.3;0.3;;;;;;;14.9;100.0;101990;;;;
2022/06/12 03:58:00;;;;;;;0.3;0.3;;;;;;;14.8;100.0;101990;;;;
2022/06/12 03:59:05;;;;;;;0.3;0.3;;;;;;;14.9;100.0;101990;;;;
2022/06/12 04:00:00;;;;;;;0.3;0.3;;;;;;;14.9;100.0;101990;;;;
2022/06/12 04:01:00;;;;;;;0.5;0.5;;;;;;;14.9;100.0;101980;;;;
2022/06/12 04:02:01;;;;;;;0.5;0.5;;;;;;;14.9;100.0;101980;;;;
2022/06/12 04:03:10;;;;;;;0.5;0.5;;;;;;;14.9;100.0;101980;;;;
2022/06/12 04:04:01;;;;;;;0.5;0.5;;;;;;;14.9;100.0;101980;;;;
2022/06/12 04:05:01;;;;;;;0.5;0.5;;;;;;;14.7;100.0;101980;;;;
2022/06/12 04:06:03;;;;;;;0.5;0.5;;;;;;;14.7;100.0;101980;;;;
2022/06/12 04:07:03;;;;;;;0.5;0.5;;;;;;;14.8;100.0;101990;;;;
2022/06/12 04:08:02;;;;;;;0.5;0.5;;;;;;;14.8;100.0;101990;;;;
2022/06/12 04:09:04;;;;;;;0.5;0.5;;;;;;;14.9;100.0;101990;;;;
2022/06/12 04:10:02;;;;;;;0.5;0.5;;;;;;;14.9;100.0;101990;;;;
2022/06/12 04:11:00;;;;;;;0.5;0.5;;;;;;;14.9;100.0;101990;;;;
2022/06/12 04:12:02;;;;;;;0.5;0.5;;;;;;;14.9;100.0;101990;;;;
2022/06/12 04:13:00;;;;;;;0.5;0.5;;;;;;;14.9;100.0;101990;;;;
2022/06/12 04:14:02;;;;;;;0.5;0.5;;;;;;;14.9;100.0;101990;;;;
2022/06/12 04:15:04;;;;;;;0.5;0.5;;;;;;;14.9;100.0;101990;;;;
2022/06/12 04:16:03;;;;;;;0.5;0.5;;;;;;;14.9;100.0;101990;;;;
2022/06/12 04:17:01;;;;;;;0.5;0.5;;;;;;;14.8;100.0;101990;;;;
2022/06/12 04:18:00;;;;;;;0.5;0.5;;;;;;;14.8;100.0;101990;;;;
2022/06/12 04:19:01;;;;;;;0.5;0.5;;;;;;;14.9;100.0;101990;;;;
2022/06/12 04:20:00;;;;;;;0.5;0.5;;;;;;;14.9;100.0;101990;;;;
2022/06/12 04:21:00;;;;;;;0.8;0.8;;;;;;;14.9;100.0;102000;;;;
2022/06/12 04:22:04;;;;;;;0.8;0.8;;;;;;;14.9;100.0;102000;;;;
2022/06/12 04:23:02;;;;;;;0.8;0.8;;;;;;;14.8;100.0;101990;;;;
2022/06/12 04:24:00;;;;;;;0.8;0.8;;;;;;;14.8;100.0;101990;;;;
2022/06/12 04:25:05;;;;;;;0.8;0.8;;;;;;;14.8;100.0;101990;;;;
2022/06/12 04:26:06;;;;;;;0.8;0.8;;;;;;;14.8;100.0;101990;;;;
2022/06/12 04:27:04;;;;;;;0.8;0.8;;;;;;;14.8;100.0;101990;;;;
2022/06/12 04:28:00;;;;;;;0.8;0.8;;;;;;;14.8;100.0;101990;;;;
2022/06/12 04:29:04;;;;;;;0.8;0.8;;;;;;;14.8;100.0;101990;;;;
2022/06/12 04:30:03;;;;;;;0.8;0.8;;;;;;;14.8;100.0;101990;;;;
2022/06/12 04:31:03;;;;;;;0.8;0.8;;;;;;;14.8;100.0;101990;;;;
2022/06/12 04:32:01;;;;;;;0.8;0.8;;;;;;;14.8;100.0;101990;;;;
2022/06/12 04:33:10;;;;;;;0.8;0.8;;;;;;;14.9;100.0;101990;;;;
2022/06/12 04:34:07;;;;;;;0.8;0.8;;;;;;;14.9;100.0;101990;;;;
2022/06/12 04:35:00;;;;;;;0.8;0.8;;;;;;;14.8;100.0;101990;;;;
2022/06/12 04:36:00;;;;;;;0.8;0.8;;;;;;;14.8;100.0;101990;;;;
2022/06/12 04:37:03;;;;;;;0.8;0.8;;;;;;;14.9;100.0;101990;;;;
2022/06/12 04:38:00;;;;;;;0.8;0.8;;;;;;;14.9;100.0;101990;;;;
2022/06/12 04:39:00;;;;;;;0.8;0.8;;;;;;;14.9;100.0;101990;;;;
2022/06/12 04:40:00;;;;;;;0.8;0.8;;;;;;;14.9;100.0;101990;;;;
2022/06/12 04:41:00;;;;;;;0.3;0.3;;;;;;;14.9;100.0;102000;;;;
2022/06/12 04:42:00;;;;;;;0.3;0.3;;;;;;;14.9;100.0;102000;;;;
2022/06/12 04:43:00;;;;;;;0.3;0.3;;;;;;;14.9;100.0;102000;;;;
2022/06/12 04:44:00;;;;;;;0.3;0.3;;;;;;;14.9;100.0;102000;;;;
2022/06/12 04:45:00;;;;;;;0.3;0.3;;;;;;;15.0;100.0;102000;;;;
2022/06/12 04:46:00;;;;;;;0.3;0.3;;;;;;;15.0;100.0;102000;;;;
2022/06/12 04:47:01;;;;;;;0.3;0.3;;;;;;;15.0;100.0;102000;;;;
2022/06/12 04:48:01;;;;;;;0.3;0.3;;;;;;;15.0;100.0;102000;;;;
2022/06/12 04:49:00;;;;;;;0.3;0.3;;;;;;;15.0;100.0;102000;;;;
2022/06/12 04:50:00;;;;;;;0.3;0.3;;;;;;;15.0;100.0;102000;;;;
2022/06/12 04:51:00;;;;;;;0.3;0.3;;;;;;;15.1;100.0;102000;;;;
2022/06/12 04:52:01;;;;;;;0.3;0.3;;;;;;;15.1;100.0;102000;;;;
2022/06/12 04:53:00;;;;;;;0.3;0.3;;;;;;;15.0;100.0;102010;;;;
2022/06/12 04:54:00;;;;;;;0.3;0.3;;;;;;;15.0;100.0;102010;;;;
2022/06/12 04:55:00;;;;;;;0.3;0.3;;;;;;;15.1;100.0;102000;;;;
2022/06/12 04:56:00;;;;;;;0.3;0.3;;;;;;;15.1;100.0;102000;;;;
2022/06/12 04:57:00;;;;;;;0.3;0.3;;;;;;;15.2;100.0;102010;;;;
2022/06/12 04:58:01;;;;;;;0.3;0.3;;;;;;;15.2;100.0;102010;;;;
2022/06/12 04:59:01;;;;;;;0.3;0.3;;;;;;;15.2;100.0;102010;;;;
2022/06/12 05:00:00;;;;;;;0.3;0.3;;;;;;;15.2;100.0;102010;;;;
2022/06/12 05:01:00;;;;;;;0.4;0.4;;;;;;;15.1;100.0;102010;;;;
2022/06/12 05:02:00;;;;;;;0.4;0.4;;;;;;;15.1;100.0;102010;;;;
2022/06/12 05:03:00;;;;;;;0.4;0.4;;;;;;;15.2;100.0;102000;;;;
2022/06/12 05:04:01;;;;;;;0.4;0.4;;;;;;;15.2;100.0;102000;;;;
2022/06/12 05:05:00;;;;;;;0.4;0.4;;;;;;;15.3;100.0;102000;;;;
2022/06/12 05:06:00;;;;;;;0.4;0.4;;;;;;;15.3;100.0;102000;;;;
2022/06/12 05:07:00;;;;;;;0.4;0.4;;;;;;;15.3;100.0;102000;;;;
2022/06/12 05:08:00;;;;;;;0.4;0.4;;;;;;;15.3;100.0;102000;;;;
2022/06/12 05:09:01;;;;;;;0.4;0.4;;;;;;;15.4;100.0;102000;;;;
2022/06/12 05:10:00;;;;;;;0.4;0.4;;;;;;;15.4;100.0;102000;;;;
2022/06/12 05:11:00;;;;;;;0.4;0.4;;;;;;;15.4;100.0;101990;;;;
2022/06/12 05:12:00;;;;;;;0.4;0.4;;;;;;;15.4;100.0;101990;;;;
2022/06/12 05:13:00;;;;;;;0.4;0.4;;;;;;;15.5;100.0;101990;;;;
2022/06/12 05:14:00;;;;;;;0.4;0.4;;;;;;;15.5;100.0;101990;;;;
2022/06/12 05:15:00;;;;;;;0.4;0.4;;;;;;;15.5;100.0;102000;;;;
2022/06/12 05:16:00;;;;;;;0.4;0.4;;;;;;;15.5;100.0;102000;;;;
2022/06/12 05:17:02;;;;;;;0.4;0.4;;;;;;;15.6;100.0;102000;;;;
2022/06/12 05:18:00;;;;;;;0.4;0.4;;;;;;;15.6;100.0;102000;;;;
2022/06/12 05:19:01;;;;;;;0.4;0.4;;;;;;;15.7;100.0;102000;;;;
2022/06/12 05:20:01;;;;;;;0.4;0.4;;;;;;;15.7;100.0;102000;;;;
2022/06/12 05:21:00;;;;;;;1.3;1.3;;;;;;;15.8;100.0;102000;;;;
2022/06/12 05:22:00;;;;;;;1.3;1.3;;;;;;;15.8;100.0;102000;;;;
2022/06/12 05:23:00;;;;;;;1.3;1.3;;;;;;;15.8;100.0;102000;;;;
2022/06/12 05:24:00;;;;;;;1.3;1.3;;;;;;;15.8;100.0;102000;;;;
2022/06/12 05:25:00;;;;;;;1.3;1.3;;;;;;;15.8;100.0;102000;;;;
2022/06/12 05:26:01;;;;;;;1.3;1.3;;;;;;;15.8;100.0;102000;;;;
2022/06/12 05:27:00;;;;;;;1.3;1.3;;;;;;;15.9;100.0;102000;;;;
2022/06/12 05:28:00;;;;;;;1.3;1.3;;;;;;;15.9;100.0;102000;;;;
2022/06/12 05:29:01;;;;;;;1.3;1.3;;;;;;;15.9;100.0;102000;;;;
2022/06/12 05:30:00;;;;;;;1.3;1.3;;;;;;;15.9;100.0;102000;;;;
2022/06/12 05:31:00;;;;;;;1.3;1.3;;;;;;;15.9;100.0;102000;;;;
2022/06/12 05:32:00;;;;;;;1.3;1.3;;;;;;;15.9;100.0;102000;;;;
2022/06/12 05:33:01;;;;;;;1.3;1.3;;;;;;;16.0;100.0;102000;;;;
2022/06/12 05:34:00;;;;;;;1.3;1.3;;;;;;;16.0;100.0;102000;;;;
2022/06/12 05:35:00;;;;;;;1.3;1.3;;;;;;;16.1;100.0;102010;;;;
2022/06/12 05:36:00;;;;;;;1.3;1.3;;;;;;;16.1;100.0;102010;;;;
2022/06/12 05:37:00;;;;;;;1.3;1.3;;;;;;;16.1;100.0;102000;;;;
2022/06/12 05:38:00;;;;;;;1.3;1.3;;;;;;;16.1;100.0;102000;;;;
2022/06/12 05:39:00;;;;;;;1.3;1.3;;;;;;;16.1;100.0;102000;;;;
2022/06/12 05:40:00;;;;;;;1.3;1.3;;;;;;;16.1;100.0;102000;;;;
2022/06/12 05:41:00;;;;;;;0.3;0.3;;;;;;;16.1;100.0;102000;;;;
2022/06/12 05:42:00;;;;;;;0.3;0.3;;;;;;;16.1;100.0;102000;;;;
2022/06/12 05:43:00;;;;;;;0.3;0.3;;;;;;;16.2;100.0;102000;;;;
2022/06/12 05:44:00;;;;;;;0.3;0.3;;;;;;;16.2;100.0;102000;;;;
2022/06/12 05:45:00;;;;;;;0.3;0.3;;;;;;;16.3;100.0;102000;;;;
2022/06/12 05:46:00;;;;;;;0.3;0.3;;;;;;;16.3;100.0;102000;;;;
2022/06/12 05:47:00;;;;;;;0.3;0.3;;;;;;;16.4;100.0;102000;;;;
2022/06/12 05:48:10;;;;;;;0.3;0.3;;;;;;;16.4;100.0;102000;;;;
2022/06/12 05:49:00;;;;;;;0.3;0.3;;;;;;;16.4;100.0;102000;;;;
2022/06/12 05:50:00;;;;;;;0.3;0.3;;;;;;;16.4;100.0;102000;;;;
2022/06/12 05:51:00;;;;;;;0.3;0.3;;;;;;;16.5;100.0;102010;;;;
2022/06/12 05:52:00;;;;;;;0.3;0.3;;;;;;;16.5;100.0;102010;;;;
2022/06/12 05:53:00;;;;;;;0.3;0.3;;;;;;;16.5;100.0;102010;;;;
2022/06/12 05:54:00;;;;;;;0.3;0.3;;;;;;;16.5;100.0;102010;;;;
2022/06/12 05:55:00;;;;;;;0.3;0.3;;;;;;;16.6;100.0;102010;;;;
2022/06/12 05:56:00;;;;;;;0.3;0.3;;;;;;;16.6;100.0;102010;;;;
2022/06/12 05:57:00;;;;;;;0.3;0.3;;;;;;;16.7;100.0;102010;;;;
2022/06/12 05:58:00;;;;;;;0.3;0.3;;;;;;;16.7;100.0;102010;;;;
2022/06/12 05:59:00;;;;;;;0.3;0.3;;;;;;;16.6;100.0;102010;;;;
2022/06/12 06:00:00;;;;;;;0.3;0.3;;;;;;;16.6;100.0;102010;;;;
2022/06/12 06:01:00;;;;;;;0.9;0.9;;;;;;;16.7;100.0;102010;;;;
2022/06/12 06:02:00;;;;;;;0.9;0.9;;;;;;;16.7;100.0;102010;;;;
2022/06/12 06:03:00;;;;;;;0.9;0.9;;;;;;;17.0;100.0;102010;;;;
2022/06/12 06:04:00;;;;;;;0.9;0.9;;;;;;;17.0;100.0;102010;;;;
2022/06/12 06:05:00;;;;;;;0.9;0.9;;;;;;;17.0;100.0;102010;;;;
2022/06/12 06:06:00;;;;;;;0.9;0.9;;;;;;;17.0;100.0;102010;;;;
2022/06/12 06:07:00;;;;;;;0.9;0.9;;;;;;;17.1;100.0;102020;;;;
2022/06/12 06:08:00;;;;;;;0.9;0.9;;;;;;;17.1;100.0;102020;;;;
2022/06/12 06:09:00;;;;;;;0.9;0.9;;;;;;;17.2;100.0;102020;;;;
2022/06/12 06:10:00;;;;;;;0.9;0.9;;;;;;;17.2;100.0;102020;;;;
2022/06/12 06:11:00;;;;;;;0.9;0.9;;;;;;;17.5;100.0;102010;;;;
2022/06/12 06:12:00;;;;;;;0.9;0.9;;;;;;;17.5;100.0;102010;;;;
2022/06/12 06:13:00;;;;;;;0.9;0.9;;;;;;;17.5;100.0;102010;;;;
2022/06/12 06:14:00;;;;;;;0.9;0.9;;;;;;;17.5;100.0;102010;;;;
2022/06/12 06:15:00;;;;;;;0.9;0.9;;;;;;;17.6;100.0;102010;;;;
2022/06/12 06:16:00;;;;;;;0.9;0.9;;;;;;;17.6;100.0;102010;;;;
2022/06/12 06:17:00;;;;;;;0.9;0.9;;;;;;;17.6;100.0;102020;;;;
2022/06/12 06:18:00;;;;;;;0.9;0.9;;;;;;;17.6;100.0;102020;;;;
2022/06/12 06:19:00;;;;;;;0.9;0.9;;;;;;;17.3;100.0;102020;;;;
2022/06/12 06:20:00;;;;;;;0.9;0.9;;;;;;;17.3;100.0;102020;;;;
2022/06/12 06:21:00;;;;;;;0.6;0.6;;;;;;;17.4;100.0;102030;;;;
2022/06/12 06:22:00;;;;;;;0.6;0.6;;;;;;;17.4;100.0;102030;;;;
2022/06/12 06:23:00;;;;;;;0.6;0.6;;;;;;;17.5;100.0;102020;;;;
2022/06/12 06:24:00;;;;;;;0.6;0.6;;;;;;;17.5;100.0;102020;;;;
2022/06/12 06:25:00;;;;;;;0.6;0.6;;;;;;;17.6;100.0;102020;;;;
2022/06/12 06:26:00;;;;;;;0.6;0.6;;;;;;;17.6;100.0;102020;;;;
2022/06/12 06:27:00;;;;;;;0.6;0.6;;;;;;;17.7;100.0;102020;;;;
2022/06/12 06:28:00;;;;;;;0.6;0.6;;;;;;;17.7;100.0;102020;;;;
2022/06/12 06:29:00;;;;;;;0.6;0.6;;;;;;;17.8;100.0;102020;;;;
2022/06/12 06:41:00;;;;;;;0.3;0.3;;;;;;;18.0;100.0;102030;;;;